Hampton Cove, Alabama
Current Conditions -  °F | °C
As of 8:58 AM on Friday 31 Oct 2014 (Local Time) from KHUA Reporting Station
Overcast Overcast  
Wind Chill: 47°   Ceiling: 6500
Heat Index: 49°   Visibility: 9mi
Dew Point: 46°   Wind: 6mph
Humidity: 89%   Direction: 30°NNE
Pressure: 29.99"   Gusts: NA
Location:  34.611°N, 86.4644°W
Report Text: KHUA 311358Z 03005KT 9SM OVC065 10/08 A2999 RMK AO2A RAE1258 SLPNO P0000 T00960078
Loading
Personal Weather Stations






























Interactive Weather Map
Tropical Storm Tracking
New forecast layout! Learn more

10-Day Weather Forecast

Advertisements
Track Severe Weather on mobile